Mariupol, Ukraine
Current Conditions -  °F | °C
As of 5:30 PM on Saturday 25 Oct 2014 (Local Time) from URRR Reporting Station
Clear Clear  
Wind Chill: 20°   Ceiling: Unl
Heat Index: 30°   Visibility: 6mi
Dew Point: 16°   Wind: 13mph
Humidity: 55%   Direction: 50°NE
Pressure: 30.5"   Gusts: NA
Location:  47.1°N, 37.55°E
Report Text: URRR 251430Z 05006MPS CAVOK M01/M09 Q1033 04CLRD70 NOSIG
Loading
Personal Weather Stations






























Interactive Weather Map
Tropical Storm Tracking
New forecast layout! Learn more

10-Day Weather Forecast

Advertisements
Track Severe Weather on mobile